createdAt,value
2017-09-12T00:00:32.058Z,22.85
2017-09-12T00:02:34.529Z,22.86
2017-09-12T00:04:36.976Z,22.86
2017-09-12T00:06:39.408Z,22.85
2017-09-12T00:08:41.966Z,22.85
2017-09-12T00:10:44.420Z,22.86
2017-09-12T00:12:46.921Z,22.85
2017-09-12T00:14:49.376Z,22.86
2017-09-12T00:16:51.900Z,22.86
2017-09-12T00:18:54.407Z,22.84
2017-09-12T00:20:56.860Z,22.85
2017-09-12T00:22:59.328Z,22.82
2017-09-12T00:25:01.787Z,22.84
2017-09-12T00:27:04.249Z,22.84
2017-09-12T00:29:06.704Z,22.84
2017-09-12T00:31:09.142Z,22.83
2017-09-12T00:33:11.630Z,22.83
2017-09-12T00:35:14.132Z,22.83
2017-09-12T00:37:16.572Z,22.81
2017-09-12T00:39:19.019Z,22.82
2017-09-12T00:41:21.449Z,22.83
2017-09-12T00:43:23.882Z,22.82
2017-09-12T00:45:26.332Z,22.83
2017-09-12T00:47:28.856Z,22.84
2017-09-12T00:49:31.284Z,22.85
2017-09-12T00:51:33.893Z,22.82
2017-09-12T00:53:36.360Z,22.82
2017-09-12T00:55:38.835Z,22.82
2017-09-12T00:57:41.365Z,22.81
2017-09-12T00:59:43.855Z,22.81
2017-09-12T01:01:46.285Z,22.82
2017-09-12T01:03:48.860Z,22.81
2017-09-12T01:05:51.340Z,22.81
2017-09-12T01:07:53.777Z,22.83
2017-09-12T01:09:56.312Z,22.82
2017-09-12T01:11:58.760Z,22.82
2017-09-12T01:14:01.192Z,22.83
2017-09-12T01:16:03.689Z,22.83
2017-09-12T01:18:06.127Z,22.83
2017-09-12T01:20:08.551Z,22.82
2017-09-12T01:22:11.007Z,22.81
2017-09-12T01:24:13.480Z,22.82
2017-09-12T01:26:15.908Z,22.82
2017-09-12T01:28:18.422Z,22.81
2017-09-12T01:30:20.848Z,22.82
2017-09-12T01:32:23.281Z,22.82
2017-09-12T01:34:25.746Z,22.81
2017-09-12T01:36:28.176Z,22.81
2017-09-12T01:38:30.688Z,22.81
2017-09-12T01:40:33.216Z,22.82
2017-09-12T01:42:35.820Z,22.82
2017-09-12T01:44:38.286Z,22.82
2017-09-12T01:46:40.761Z,22.80
2017-09-12T01:48:43.255Z,22.82
2017-09-12T01:50:45.792Z,22.82
2017-09-12T01:52:48.400Z,22.80
2017-09-12T01:54:50.828Z,22.82
2017-09-12T01:56:53.270Z,22.83
2017-09-12T01:58:55.721Z,22.83
2017-09-12T02:00:58.160Z,22.83
2017-09-12T02:03:00.600Z,22.82
2017-09-12T02:05:03.097Z,22.82
2017-09-12T02:07:05.528Z,22.82
2017-09-12T02:09:07.954Z,22.83
2017-09-12T02:11:10.409Z,22.81
2017-09-12T02:13:12.846Z,22.79
2017-09-12T02:15:15.271Z,22.81
2017-09-12T02:17:17.744Z,22.81
2017-09-12T02:19:20.265Z,22.81
2017-09-12T02:21:22.747Z,22.80
2017-09-12T02:23:25.201Z,22.79
2017-09-12T02:25:27.684Z,22.80
2017-09-12T02:27:30.138Z,22.81
2017-09-12T02:29:32.606Z,22.82
2017-09-12T02:31:35.042Z,22.81
2017-09-12T02:33:37.672Z,22.81
2017-09-12T02:35:40.141Z,22.80
2017-09-12T02:37:42.581Z,22.81
2017-09-12T02:39:45.084Z,22.80
2017-09-12T02:41:47.594Z,22.81
2017-09-12T02:43:50.095Z,22.80
2017-09-12T02:45:52.644Z,22.78
2017-09-12T02:47:55.120Z,22.78
2017-09-12T02:49:57.562Z,22.79
2017-09-12T02:52:00.013Z,22.77
2017-09-12T02:54:02.685Z,22.78
2017-09-12T02:56:05.121Z,22.80
2017-09-12T02:58:07.572Z,22.81
2017-09-12T03:00:10.117Z,22.80
2017-09-12T03:02:12.628Z,22.80
2017-09-12T03:04:15.057Z,22.81
2017-09-12T03:06:17.506Z,22.80
2017-09-12T03:08:19.935Z,22.80
2017-09-12T03:10:22.370Z,22.78
2017-09-12T03:12:24.824Z,22.78
2017-09-12T03:14:27.320Z,22.78
2017-09-12T03:16:29.750Z,22.78
2017-09-12T03:18:32.304Z,22.78
2017-09-12T03:20:34.885Z,22.76
2017-09-12T03:22:37.471Z,22.77
2017-09-12T03:24:39.914Z,22.78
2017-09-12T03:26:42.376Z,22.77
2017-09-12T03:28:44.812Z,22.77
2017-09-12T03:30:47.265Z,22.75
2017-09-12T03:32:49.712Z,22.77
2017-09-12T03:34:52.186Z,22.76
2017-09-12T03:36:54.688Z,22.76
2017-09-12T03:38:57.229Z,22.76
2017-09-12T03:40:59.689Z,22.77
2017-09-12T03:43:02.241Z,22.77
2017-09-12T03:45:04.721Z,22.76
2017-09-12T03:47:07.237Z,22.75
2017-09-12T03:49:09.720Z,22.74
2017-09-12T03:51:12.234Z,22.74
2017-09-12T03:53:14.800Z,22.75
2017-09-12T03:55:17.432Z,22.76
2017-09-12T03:57:19.872Z,22.76
2017-09-12T03:59:22.352Z,22.76
2017-09-12T04:01:24.804Z,22.76
2017-09-12T04:03:27.233Z,22.76
2017-09-12T04:05:29.664Z,22.75
2017-09-12T04:07:32.128Z,22.74
2017-09-12T04:09:34.588Z,22.74
2017-09-12T04:11:37.059Z,22.75
2017-09-12T04:13:39.635Z,22.74
2017-09-12T04:15:42.134Z,22.74
2017-09-12T04:17:44.560Z,22.75
2017-09-12T04:19:47.030Z,22.76
2017-09-12T04:21:49.517Z,22.75
2017-09-12T04:23:52.088Z,22.75
2017-09-12T04:25:54.662Z,22.72
2017-09-12T04:27:57.096Z,22.72
2017-09-12T04:29:59.532Z,22.73
2017-09-12T04:32:02.029Z,22.72
2017-09-12T04:34:04.460Z,22.73
2017-09-12T04:36:06.892Z,22.72
2017-09-12T04:38:09.378Z,22.72
2017-09-12T04:40:11.830Z,22.73
2017-09-12T04:42:14.318Z,22.72
2017-09-12T04:44:16.771Z,22.73
2017-09-12T04:46:19.260Z,22.72
2017-09-12T04:48:21.730Z,22.74
2017-09-12T04:50:24.258Z,22.73
2017-09-12T04:52:26.698Z,22.73
2017-09-12T04:54:29.138Z,22.72
2017-09-12T04:56:31.744Z,22.72
2017-09-12T04:58:34.229Z,22.71
2017-09-12T05:00:36.857Z,22.72
2017-09-12T05:02:39.305Z,22.72
2017-09-12T05:04:41.812Z,22.72
2017-09-12T05:06:44.305Z,22.72
2017-09-12T05:08:46.912Z,22.71
2017-09-12T05:10:49.372Z,22.73
2017-09-12T05:12:51.827Z,22.74
2017-09-12T05:14:54.462Z,22.73
2017-09-12T05:16:56.903Z,22.74
2017-09-12T05:18:59.351Z,22.74
2017-09-12T05:21:01.802Z,22.72
2017-09-12T05:23:04.231Z,22.74
2017-09-12T05:25:06.703Z,22.73
2017-09-12T05:27:09.204Z,22.72
2017-09-12T05:29:11.629Z,22.75
2017-09-12T05:31:14.065Z,22.73
2017-09-12T05:33:16.597Z,22.72
2017-09-12T05:35:19.142Z,22.73
2017-09-12T05:37:21.572Z,22.73
2017-09-12T05:39:24.212Z,22.74
2017-09-12T05:41:26.656Z,22.74
2017-09-12T05:43:29.085Z,22.72
2017-09-12T05:45:31.544Z,22.72
2017-09-12T05:47:33.980Z,22.72
2017-09-12T05:49:36.557Z,22.72
2017-09-12T05:51:39.064Z,22.72
2017-09-12T05:53:41.553Z,22.75
2017-09-12T05:55:44.032Z,22.76
2017-09-12T05:57:46.606Z,22.76
2017-09-12T05:59:49.149Z,22.77
2017-09-12T06:01:51.624Z,22.80
2017-09-12T06:03:54.098Z,22.81
2017-09-12T06:05:56.584Z,22.81
2017-09-12T06:07:59.091Z,22.81
2017-09-12T06:10:01.604Z,22.81
2017-09-12T06:12:04.036Z,22.85
2017-09-12T06:14:06.480Z,22.85
2017-09-12T06:16:09.084Z,22.86
2017-09-12T06:18:12.581Z,22.87
2017-09-12T06:20:15.038Z,22.89
2017-09-12T06:22:17.817Z,22.89
2017-09-12T06:24:20.318Z,22.89
2017-09-12T06:26:22.772Z,22.91
2017-09-12T06:28:25.314Z,22.91
2017-09-12T06:30:27.812Z,22.92
2017-09-12T06:32:30.280Z,22.94
2017-09-12T06:34:32.764Z,22.96
2017-09-12T06:36:35.203Z,22.97
2017-09-12T06:38:37.737Z,22.98
2017-09-12T06:40:40.353Z,22.99
2017-09-12T06:42:42.969Z,22.99
2017-09-12T06:44:45.435Z,22.99
2017-09-12T06:46:47.906Z,23.08
2017-09-12T06:48:50.349Z,23.18
2017-09-12T06:50:52.784Z,23.17
2017-09-12T06:52:55.352Z,23.37
2017-09-12T06:54:57.936Z,23.28
2017-09-12T06:57:00.397Z,23.22
2017-09-12T06:59:02.890Z,23.20
2017-09-12T07:01:05.323Z,23.19
2017-09-12T07:03:07.890Z,23.20
2017-09-12T07:05:10.356Z,23.19
2017-09-12T07:07:12.819Z,23.18
2017-09-12T07:09:15.343Z,23.18
2017-09-12T07:11:17.831Z,23.19
2017-09-12T07:13:20.388Z,23.18
2017-09-12T07:15:22.824Z,23.18
2017-09-12T07:17:25.421Z,23.20
2017-09-12T07:19:27.878Z,23.25
2017-09-12T07:21:30.338Z,23.27
2017-09-12T07:23:32.817Z,23.28
2017-09-12T07:25:35.260Z,23.27
2017-09-12T07:27:37.709Z,23.26
2017-09-12T07:29:40.169Z,23.27
2017-09-12T07:31:42.721Z,23.26
2017-09-12T07:33:45.279Z,23.25
2017-09-12T07:35:47.790Z,23.24
2017-09-12T07:37:50.244Z,23.23
2017-09-12T07:39:52.737Z,23.24
2017-09-12T07:41:55.188Z,23.22
2017-09-12T07:43:57.646Z,23.21
2017-09-12T07:46:00.119Z,23.22
2017-09-12T07:48:02.576Z,23.23
2017-09-12T07:50:05.029Z,23.25
2017-09-12T07:52:07.515Z,23.28
2017-09-12T07:54:09.996Z,23.29
2017-09-12T07:56:12.502Z,23.35
2017-09-12T07:58:14.985Z,23.40
2017-09-12T08:00:17.696Z,23.39
2017-09-12T08:02:20.242Z,23.43
2017-09-12T08:04:22.755Z,23.44
2017-09-12T08:06:25.295Z,23.41
2017-09-12T08:08:27.845Z,23.40
2017-09-12T08:10:30.277Z,23.39
2017-09-12T08:12:32.840Z,23.41
2017-09-12T08:14:35.360Z,23.44
2017-09-12T08:16:37.825Z,23.45
2017-09-12T08:18:40.383Z,23.46
2017-09-12T08:20:42.827Z,23.44
2017-09-12T08:22:45.258Z,23.43
2017-09-12T08:24:47.804Z,23.44
2017-09-12T08:26:50.240Z,23.45
2017-09-12T08:28:52.753Z,23.51
2017-09-12T08:30:55.203Z,23.53
2017-09-12T08:32:57.690Z,23.52
2017-09-12T08:35:00.250Z,23.51
2017-09-12T08:37:02.789Z,23.52
2017-09-12T08:39:05.259Z,23.52
2017-09-12T08:41:07.758Z,23.56
2017-09-12T08:43:10.252Z,23.56
2017-09-12T08:45:13.793Z,23.58
2017-09-12T08:47:16.247Z,23.59
2017-09-12T08:49:18.758Z,23.60
2017-09-12T08:51:22.565Z,23.61
2017-09-12T08:53:25.012Z,23.62
2017-09-12T08:55:27.498Z,23.62
2017-09-12T08:57:30.004Z,23.54
2017-09-12T08:59:32.513Z,23.58
2017-09-12T09:01:35.340Z,23.61
2017-09-12T09:03:37.788Z,23.61
2017-09-12T09:05:40.235Z,23.62
2017-09-12T09:07:42.730Z,23.64
2017-09-12T09:09:45.386Z,23.62
2017-09-12T09:11:47.850Z,23.63
2017-09-12T09:13:50.337Z,23.62
2017-09-12T09:15:52.900Z,23.61
2017-09-12T09:17:55.472Z,23.61
2017-09-12T09:19:58.002Z,23.63
2017-09-12T09:22:00.464Z,23.63
2017-09-12T09:24:03.000Z,23.65
2017-09-12T09:26:05.500Z,23.84
2017-09-12T09:28:08.221Z,23.86
2017-09-12T09:30:10.775Z,24.00
2017-09-12T09:32:13.277Z,24.17
2017-09-12T09:34:15.822Z,24.11
2017-09-12T09:36:18.272Z,24.03
2017-09-12T09:38:20.793Z,24.01
2017-09-12T09:40:23.275Z,24.05
2017-09-12T09:42:25.793Z,24.06
2017-09-12T09:44:28.268Z,23.98
2017-09-12T09:46:30.779Z,23.93
2017-09-12T09:48:33.209Z,23.95
2017-09-12T09:50:35.701Z,23.96
2017-09-12T09:52:38.170Z,24.01
2017-09-12T09:54:40.626Z,24.01
2017-09-12T09:56:43.224Z,24.01
2017-09-12T09:58:45.674Z,23.98
2017-09-12T10:00:48.112Z,23.96
2017-09-12T10:02:50.780Z,23.98
2017-09-12T10:04:53.229Z,24.00
2017-09-12T10:06:55.678Z,23.99
2017-09-12T10:08:58.143Z,23.97
2017-09-12T10:11:00.580Z,23.97
2017-09-12T10:13:03.152Z,23.99
2017-09-12T10:15:05.667Z,24.01
2017-09-12T10:17:08.169Z,24.01
2017-09-12T10:19:10.706Z,24.03
2017-09-12T10:21:13.203Z,23.99
2017-09-12T10:23:15.680Z,23.99
2017-09-12T10:25:18.146Z,23.98
2017-09-12T10:27:20.636Z,23.95
2017-09-12T10:29:23.104Z,23.92
2017-09-12T10:31:25.571Z,23.95
2017-09-12T10:33:28.193Z,23.93
2017-09-12T10:35:30.676Z,23.96
2017-09-12T10:37:33.142Z,23.95
2017-09-12T10:39:35.655Z,23.94
2017-09-12T10:41:38.111Z,23.97
2017-09-12T10:43:40.564Z,23.98
2017-09-12T10:45:43.110Z,23.99
2017-09-12T10:47:45.549Z,24.00
2017-09-12T10:49:48.062Z,23.97
2017-09-12T10:51:50.565Z,23.95
2017-09-12T10:53:53.013Z,23.99
2017-09-12T10:55:55.482Z,23.96
2017-09-12T10:57:57.943Z,23.95
2017-09-12T11:00:00.469Z,23.93
2017-09-12T11:02:03.057Z,23.95
2017-09-12T11:04:05.616Z,23.96
2017-09-12T11:06:08.130Z,23.98
2017-09-12T11:08:10.588Z,24.02
2017-09-12T11:10:13.176Z,24.04
2017-09-12T11:12:15.656Z,24.05
2017-09-12T11:14:18.124Z,24.02
2017-09-12T11:16:20.676Z,24.00
2017-09-12T11:18:23.145Z,23.97
2017-09-12T11:20:25.594Z,23.90
2017-09-12T11:22:28.084Z,23.85
2017-09-12T11:24:30.673Z,23.86
2017-09-12T11:26:33.260Z,23.88
2017-09-12T11:28:36.731Z,23.84
2017-09-12T11:30:39.216Z,23.83
2017-09-12T11:32:41.716Z,23.83
2017-09-12T11:34:44.183Z,23.83
2017-09-12T11:36:46.675Z,23.82
2017-09-12T11:38:49.117Z,23.81
2017-09-12T11:40:51.668Z,23.79
2017-09-12T11:42:54.330Z,23.81
2017-09-12T11:44:56.905Z,23.84
2017-09-12T11:46:59.485Z,23.90
2017-09-12T11:49:02.079Z,23.94
2017-09-12T11:51:04.546Z,23.97
2017-09-12T11:53:07.060Z,23.92
2017-09-12T11:55:09.557Z,23.90
2017-09-12T11:57:12.020Z,23.93
2017-09-12T11:59:14.478Z,23.97
2017-09-12T12:01:16.976Z,23.98
2017-09-12T12:03:19.421Z,24.00
2017-09-12T12:05:22.947Z,23.95
2017-09-12T12:07:25.418Z,23.95
2017-09-12T12:09:27.864Z,23.93
2017-09-12T12:11:30.381Z,23.90
2017-09-12T12:13:32.932Z,23.87
2017-09-12T12:15:35.418Z,23.87
2017-09-12T12:17:37.925Z,23.85
2017-09-12T12:19:40.364Z,23.88
2017-09-12T12:21:43.728Z,23.91
2017-09-12T12:23:46.208Z,23.92
2017-09-12T12:25:48.773Z,23.91
2017-09-12T12:27:51.216Z,23.94
2017-09-12T12:29:53.710Z,23.93
2017-09-12T12:31:56.151Z,23.95
2017-09-12T12:33:58.654Z,23.91
2017-09-12T12:36:01.142Z,23.85
2017-09-12T12:38:03.702Z,23.82
2017-09-12T12:40:06.136Z,23.81
2017-09-12T12:42:08.651Z,23.81
2017-09-12T12:44:11.104Z,23.83
2017-09-12T12:46:13.535Z,23.82
2017-09-12T12:48:17.033Z,23.80
2017-09-12T12:50:19.469Z,23.77
2017-09-12T12:52:21.908Z,23.77
2017-09-12T12:54:24.369Z,23.76
2017-09-12T12:56:27.055Z,23.72
2017-09-12T12:58:29.526Z,23.69
2017-09-12T13:00:32.095Z,23.69
2017-09-12T13:02:34.541Z,23.69
2017-09-12T13:04:37.035Z,23.69
2017-09-12T13:06:39.712Z,23.69
2017-09-12T13:08:42.264Z,23.67
2017-09-12T13:10:45.808Z,23.67
2017-09-12T13:12:48.349Z,23.74
2017-09-12T13:14:50.922Z,23.79
2017-09-12T13:16:53.399Z,23.80
2017-09-12T13:18:55.861Z,23.85
2017-09-12T13:20:58.297Z,23.85
2017-09-12T13:23:00.764Z,23.84
2017-09-12T13:25:03.335Z,23.79
2017-09-12T13:27:05.790Z,23.78
2017-09-12T13:29:08.241Z,23.74
2017-09-12T13:31:10.692Z,23.73
2017-09-12T13:33:13.164Z,23.70
2017-09-12T13:35:15.655Z,23.66
2017-09-12T13:37:18.112Z,23.72
2017-09-12T13:39:20.604Z,23.73
2017-09-12T13:41:23.129Z,23.73
2017-09-12T13:43:25.682Z,23.73
2017-09-12T13:45:28.189Z,23.71
2017-09-12T13:47:30.665Z,23.70
2017-09-12T13:49:33.221Z,23.71
2017-09-12T13:51:35.671Z,23.70
2017-09-12T13:53:38.212Z,23.69
2017-09-12T13:55:40.734Z,23.69
2017-09-12T13:57:43.169Z,23.69
2017-09-12T13:59:45.635Z,23.69
2017-09-12T14:01:48.148Z,23.68
2017-09-12T14:03:50.597Z,23.68
2017-09-12T14:05:53.127Z,23.68
2017-09-12T14:07:55.752Z,23.69
2017-09-12T14:09:58.200Z,23.71
2017-09-12T14:12:00.703Z,23.72
2017-09-12T14:14:03.229Z,23.71
2017-09-12T14:16:05.680Z,23.69
2017-09-12T14:18:08.148Z,23.69
2017-09-12T14:20:10.613Z,23.70
2017-09-12T14:22:13.053Z,23.69
2017-09-12T14:24:15.569Z,23.68
2017-09-12T14:26:18.179Z,23.69
2017-09-12T14:28:20.641Z,23.68
2017-09-12T14:30:23.091Z,23.67
2017-09-12T14:32:25.607Z,23.68
2017-09-12T14:34:28.072Z,23.68
2017-09-12T14:36:30.729Z,23.69
2017-09-12T14:38:33.326Z,23.69
2017-09-12T14:40:35.819Z,23.72
2017-09-12T14:42:38.372Z,23.71
2017-09-12T14:44:40.876Z,23.70
2017-09-12T14:46:43.334Z,23.69
2017-09-12T14:48:45.882Z,23.69
2017-09-12T14:50:48.396Z,23.70
2017-09-12T14:52:50.856Z,23.70
2017-09-12T14:54:53.296Z,23.71
2017-09-12T14:56:55.802Z,23.70
2017-09-12T14:58:58.250Z,23.67
2017-09-12T15:01:00.775Z,23.67
2017-09-12T15:03:03.256Z,23.67
2017-09-12T15:05:05.711Z,23.66
2017-09-12T15:07:08.229Z,23.68
2017-09-12T15:09:10.828Z,23.67
2017-09-12T15:11:13.273Z,23.71
2017-09-12T15:13:15.756Z,23.69
2017-09-12T15:15:18.275Z,23.68
2017-09-12T15:17:21.618Z,23.68
2017-09-12T15:19:24.144Z,23.68
2017-09-12T15:21:26.631Z,23.66
2017-09-12T15:23:29.067Z,23.67
2017-09-12T15:25:31.508Z,23.67
2017-09-12T15:27:34.146Z,23.67
2017-09-12T15:29:36.580Z,23.65
2017-09-12T15:31:39.030Z,23.66
2017-09-12T15:33:42.404Z,23.67
2017-09-12T15:35:44.888Z,23.67
2017-09-12T15:37:47.350Z,23.66
2017-09-12T15:39:49.838Z,23.66
2017-09-12T15:41:52.272Z,23.66
2017-09-12T15:43:55.630Z,23.66
2017-09-12T15:45:58.086Z,23.67
2017-09-12T15:48:00.523Z,23.68
2017-09-12T15:50:02.956Z,23.67
2017-09-12T15:52:05.531Z,23.66
2017-09-12T15:54:08.099Z,23.65
2017-09-12T15:56:10.647Z,23.65
2017-09-12T15:58:13.160Z,23.64
2017-09-12T16:00:15.615Z,23.64
2017-09-12T16:02:18.082Z,23.65
2017-09-12T16:04:20.594Z,23.64
2017-09-12T16:06:23.084Z,23.58
2017-09-12T16:08:25.602Z,23.52
2017-09-12T16:10:28.257Z,23.43
2017-09-12T16:12:30.849Z,23.37
2017-09-12T16:14:33.288Z,23.36
2017-09-12T16:16:35.785Z,23.31
2017-09-12T16:18:38.267Z,23.34
2017-09-12T16:20:40.830Z,23.36
2017-09-12T16:22:43.285Z,23.28
2017-09-12T16:24:45.837Z,23.25
2017-09-12T16:26:48.324Z,23.23
2017-09-12T16:28:50.911Z,23.27
2017-09-12T16:30:53.507Z,23.28
2017-09-12T16:32:55.992Z,23.21
2017-09-12T16:34:58.469Z,23.22
2017-09-12T16:37:01.050Z,23.22
2017-09-12T16:39:03.535Z,23.20
2017-09-12T16:41:06.041Z,23.20
2017-09-12T16:43:08.563Z,23.18
2017-09-12T16:45:11.001Z,23.20
2017-09-12T16:47:13.461Z,23.19
2017-09-12T16:49:15.900Z,23.11
2017-09-12T16:51:18.354Z,23.16
2017-09-12T16:53:20.853Z,23.17
2017-09-12T16:55:23.322Z,23.16
2017-09-12T16:57:25.823Z,23.09
2017-09-12T16:59:28.478Z,23.05
2017-09-12T17:01:31.936Z,23.06
2017-09-12T17:03:34.545Z,23.08
2017-09-12T17:05:37.013Z,23.10
2017-09-12T17:07:39.489Z,23.10
2017-09-12T17:09:41.954Z,23.07
2017-09-12T17:11:44.464Z,23.04
2017-09-12T17:13:46.922Z,23.06
2017-09-12T17:15:49.372Z,23.04
2017-09-12T17:17:51.873Z,23.02
2017-09-12T17:19:54.405Z,23.03
2017-09-12T17:21:56.854Z,22.96
2017-09-12T17:23:59.454Z,22.93
2017-09-12T17:26:01.903Z,22.95
2017-09-12T17:28:04.400Z,22.92
2017-09-12T17:30:06.869Z,22.95
2017-09-12T17:32:09.379Z,22.99
2017-09-12T17:34:11.840Z,22.96
2017-09-12T17:36:14.408Z,22.98
2017-09-12T17:38:16.878Z,22.92
2017-09-12T17:40:19.314Z,22.88
2017-09-12T17:42:21.775Z,22.88
2017-09-12T17:44:24.336Z,22.87
2017-09-12T17:46:26.781Z,22.85
2017-09-12T17:48:29.298Z,22.86
2017-09-12T17:50:31.737Z,22.83
2017-09-12T17:52:34.176Z,22.82
2017-09-12T17:54:36.658Z,22.84
2017-09-12T17:56:39.123Z,22.82
2017-09-12T17:58:41.591Z,22.81
2017-09-12T18:00:44.185Z,22.79
2017-09-12T18:02:46.629Z,22.82
2017-09-12T18:04:49.128Z,22.74
2017-09-12T18:06:51.605Z,22.71
2017-09-12T18:08:54.042Z,22.73
2017-09-12T18:10:56.566Z,22.73
2017-09-12T18:12:59.327Z,22.74
2017-09-12T18:15:01.781Z,22.72
2017-09-12T18:17:04.217Z,22.57
2017-09-12T18:19:06.823Z,22.60
2017-09-12T18:21:10.134Z,22.49
2017-09-12T18:23:12.736Z,22.53
2017-09-12T18:25:15.354Z,22.59
2017-09-12T18:27:17.794Z,22.61
2017-09-12T18:29:20.256Z,22.62
2017-09-12T18:31:22.736Z,22.57
2017-09-12T18:33:25.284Z,22.58
2017-09-12T18:35:27.834Z,22.58
2017-09-12T18:37:30.530Z,22.56
2017-09-12T18:39:33.074Z,22.58
2017-09-12T18:41:35.520Z,22.59
2017-09-12T18:43:38.253Z,22.55
2017-09-12T18:45:40.852Z,22.55
2017-09-12T18:47:44.516Z,22.58
2017-09-12T18:49:47.503Z,22.60
2017-09-12T18:51:50.380Z,22.60
2017-09-12T18:53:52.914Z,22.54
2017-09-12T18:55:55.380Z,22.54
2017-09-12T18:57:57.895Z,22.56
2017-09-12T19:00:00.356Z,22.54
2017-09-12T19:02:02.836Z,22.51
2017-09-12T19:04:05.467Z,22.51
2017-09-12T19:06:07.983Z,22.46
2017-09-12T19:08:10.461Z,22.45
2017-09-12T19:10:12.963Z,22.46
2017-09-12T19:12:15.421Z,22.45
2017-09-12T19:14:18.014Z,22.52
2017-09-12T19:16:20.462Z,22.51
2017-09-12T19:18:22.924Z,22.48
2017-09-12T19:20:25.439Z,22.43
2017-09-12T19:22:27.883Z,22.45
2017-09-12T19:24:30.365Z,22.39
2017-09-12T19:26:32.844Z,22.43
2017-09-12T19:28:35.278Z,22.42
2017-09-12T19:30:37.744Z,22.42
2017-09-12T19:32:40.223Z,22.44
2017-09-12T19:34:42.765Z,22.42
2017-09-12T19:36:45.277Z,22.42
2017-09-12T19:38:47.904Z,22.39
2017-09-12T19:40:50.358Z,22.37
2017-09-12T19:42:52.817Z,22.35
2017-09-12T19:44:55.292Z,22.36
2017-09-12T19:46:57.769Z,22.36
2017-09-12T19:49:00.263Z,22.31
2017-09-12T19:51:02.736Z,22.34
2017-09-12T19:53:05.304Z,22.27
2017-09-12T19:55:07.879Z,22.27
2017-09-12T19:57:10.455Z,22.32
2017-09-12T19:59:12.896Z,22.33
2017-09-12T20:01:15.358Z,22.33
2017-09-12T20:03:17.817Z,22.31
2017-09-12T20:05:20.313Z,22.27
2017-09-12T20:07:22.816Z,22.24
2017-09-12T20:09:25.320Z,22.27
2017-09-12T20:11:27.797Z,22.25
2017-09-12T20:13:30.240Z,22.27
2017-09-12T20:15:32.941Z,22.26
2017-09-12T20:17:35.399Z,22.25
2017-09-12T20:19:37.877Z,22.21
2017-09-12T20:21:40.336Z,22.17
2017-09-12T20:23:42.814Z,22.17
2017-09-12T20:25:45.283Z,22.15
2017-09-12T20:27:47.735Z,22.19
2017-09-12T20:29:50.218Z,22.22
2017-09-12T20:31:52.689Z,22.23
2017-09-12T20:33:55.170Z,22.28
2017-09-12T20:35:57.618Z,22.27
2017-09-12T20:38:00.063Z,22.25
2017-09-12T20:40:02.523Z,22.23
2017-09-12T20:42:05.050Z,22.23
2017-09-12T20:44:07.568Z,22.21
2017-09-12T20:46:10.053Z,22.21
2017-09-12T20:48:12.513Z,22.20
2017-09-12T20:50:15.032Z,22.18
2017-09-12T20:52:17.584Z,22.16
2017-09-12T20:54:20.092Z,22.18
2017-09-12T20:56:22.529Z,22.21
2017-09-12T20:58:25.060Z,22.23
2017-09-12T21:00:27.510Z,22.24
2017-09-12T21:02:30.061Z,22.24
2017-09-12T21:04:32.520Z,22.24
2017-09-12T21:06:35.052Z,22.18
2017-09-12T21:08:37.565Z,22.18
2017-09-12T21:10:40.042Z,22.14
2017-09-12T21:12:42.651Z,22.16
2017-09-12T21:14:45.136Z,22.16
2017-09-12T21:16:47.739Z,22.13
2017-09-12T21:18:50.281Z,22.14
2017-09-12T21:20:52.784Z,22.18
2017-09-12T21:22:55.304Z,22.08
2017-09-12T21:24:57.735Z,22.06
2017-09-12T21:27:00.204Z,22.05
2017-09-12T21:29:02.660Z,22.05
2017-09-12T21:31:05.207Z,22.02
2017-09-12T21:33:07.878Z,22.02
2017-09-12T21:35:10.333Z,22.02
2017-09-12T21:37:12.776Z,22.03
2017-09-12T21:39:15.229Z,22.00
2017-09-12T21:41:17.759Z,22.03
2017-09-12T21:43:20.227Z,21.99
2017-09-12T21:45:22.654Z,22.02
2017-09-12T21:47:25.110Z,21.95
2017-09-12T21:49:27.686Z,22.02
2017-09-12T21:51:30.130Z,22.04
2017-09-12T21:53:33.021Z,22.08
2017-09-12T21:55:35.453Z,22.10
2017-09-12T21:57:37.978Z,22.01
2017-09-12T21:59:40.448Z,21.96
2017-09-12T22:01:42.932Z,21.96
2017-09-12T22:03:45.388Z,21.96
2017-09-12T22:05:47.898Z,22.02
2017-09-12T22:07:50.588Z,21.98
2017-09-12T22:09:53.145Z,21.98
2017-09-12T22:11:55.676Z,22.04
2017-09-12T22:13:58.123Z,22.01
2017-09-12T22:16:00.611Z,21.99
2017-09-12T22:18:03.264Z,21.97
2017-09-12T22:20:05.886Z,21.99
2017-09-12T22:22:08.444Z,21.94
2017-09-12T22:24:11.025Z,22.01
2017-09-12T22:26:13.461Z,21.97
2017-09-12T22:28:15.912Z,22.01
2017-09-12T22:30:18.376Z,21.87
2017-09-12T22:32:21.979Z,21.92
2017-09-12T22:34:24.442Z,21.94
2017-09-12T22:36:27.072Z,21.91
2017-09-12T22:38:29.637Z,21.89
2017-09-12T22:40:32.201Z,21.93
2017-09-12T22:42:34.824Z,21.86
2017-09-12T22:44:37.331Z,21.88
2017-09-12T22:46:39.792Z,21.83
2017-09-12T22:48:42.604Z,21.81
2017-09-12T22:50:45.158Z,21.78
2017-09-12T22:52:47.616Z,21.85
2017-09-12T22:54:50.209Z,21.86
2017-09-12T22:56:52.722Z,21.84
2017-09-12T22:58:55.268Z,21.87
2017-09-12T23:00:57.738Z,21.86
2017-09-12T23:03:00.264Z,21.89
2017-09-12T23:05:02.842Z,21.88
2017-09-12T23:07:05.371Z,21.81
2017-09-12T23:09:07.904Z,21.81
2017-09-12T23:11:10.340Z,21.81
2017-09-12T23:13:12.848Z,21.75
2017-09-12T23:15:15.337Z,21.77
2017-09-12T23:17:18.000Z,21.74
2017-09-12T23:19:20.628Z,21.76
2017-09-12T23:21:23.095Z,21.74
2017-09-12T23:23:25.676Z,21.72
2017-09-12T23:25:28.143Z,21.77
2017-09-12T23:27:30.600Z,21.71
2017-09-12T23:29:33.195Z,21.71
2017-09-12T23:31:35.786Z,21.71
2017-09-12T23:33:38.236Z,21.69
2017-09-12T23:35:40.680Z,21.60
2017-09-12T23:37:43.140Z,21.62
2017-09-12T23:39:45.629Z,21.66
2017-09-12T23:41:48.139Z,21.66
2017-09-12T23:43:50.661Z,21.71
2017-09-12T23:45:53.251Z,21.66
2017-09-12T23:47:55.751Z,21.60
2017-09-12T23:49:58.296Z,21.64
2017-09-12T23:52:00.744Z,21.54
2017-09-12T23:54:03.259Z,21.58
2017-09-12T23:56:05.718Z,21.60
2017-09-12T23:58:08.174Z,21.61
